createdAt,value
2023-03-21T00:00:58.009Z,29.02
2023-03-21T00:05:05.888Z,28.95
2023-03-21T00:08:59.027Z,29.02
2023-03-21T00:12:57.983Z,28.91
2023-03-21T00:16:57.967Z,28.88
2023-03-21T00:21:15.737Z,28.87
2023-03-21T00:24:59.111Z,28.87
2023-03-21T00:28:58.100Z,28.81
2023-03-21T00:33:01.461Z,28.81
2023-03-21T00:36:59.062Z,28.77
2023-03-21T00:41:01.914Z,28.78
2023-03-21T00:44:58.988Z,28.71
2023-03-21T00:48:57.951Z,28.69
2023-03-21T00:52:57.973Z,28.74
2023-03-21T00:56:58.142Z,28.60
2023-03-21T01:00:58.346Z,28.62
2023-03-21T01:04:58.498Z,28.59
2023-03-21T01:08:58.667Z,28.59
2023-03-21T01:12:58.839Z,28.59
2023-03-21T01:16:59.039Z,28.59
2023-03-21T01:20:59.136Z,28.60
2023-03-21T01:25:12.050Z,28.53
2023-03-21T01:29:00.288Z,28.54
2023-03-21T01:32:59.244Z,28.51
2023-03-21T01:36:59.219Z,28.53
2023-03-21T01:41:00.485Z,28.58
2023-03-21T01:44:59.470Z,28.47
2023-03-21T01:48:59.625Z,28.54
2023-03-21T01:52:59.749Z,28.51
2023-03-21T01:56:59.917Z,28.50
2023-03-21T02:01:00.151Z,28.51
2023-03-21T02:05:00.236Z,28.65
2023-03-21T02:09:00.421Z,28.51
2023-03-21T02:13:00.550Z,28.40
2023-03-21T02:17:00.738Z,28.40
2023-03-21T02:21:00.914Z,28.37
2023-03-21T02:25:04.464Z,28.40
2023-03-21T02:29:02.042Z,28.40
2023-03-21T02:33:00.999Z,28.34
2023-03-21T02:37:01.020Z,28.35
2023-03-21T02:41:03.425Z,28.43
2023-03-21T02:45:01.301Z,28.34
2023-03-21T02:49:01.437Z,28.34
2023-03-21T02:53:01.610Z,28.34
2023-03-21T02:57:01.747Z,28.31
2023-03-21T03:01:01.920Z,28.29
2023-03-21T03:05:06.438Z,28.26
2023-03-21T03:09:03.330Z,28.31
2023-03-21T03:13:02.010Z,28.25
2023-03-21T03:17:01.994Z,28.21
2023-03-21T03:21:02.246Z,28.28
2023-03-21T03:25:09.496Z,28.22
2023-03-21T03:29:03.267Z,28.34
2023-03-21T03:33:02.240Z,28.14
2023-03-21T03:37:02.276Z,28.15
2023-03-21T03:41:02.324Z,28.25
2023-03-21T03:45:02.482Z,28.21
2023-03-21T03:49:02.605Z,28.21
2023-03-21T03:53:07.115Z,28.14
2023-03-21T03:57:03.730Z,28.10
2023-03-21T04:01:02.699Z,28.15
2023-03-21T04:05:02.661Z,28.13
2023-03-21T04:09:10.516Z,28.12
2023-03-21T04:13:03.692Z,28.09
2023-03-21T04:17:02.644Z,28.09
2023-03-21T04:21:02.626Z,28.07
2023-03-21T04:25:02.738Z,28.19
2023-03-21T04:29:02.872Z,28.04
2023-03-21T04:33:02.996Z,28.12
2023-03-21T04:37:03.134Z,28.06
2023-03-21T04:41:03.276Z,28.07
2023-03-21T04:45:03.411Z,28.10
2023-03-21T04:49:03.510Z,28.04
2023-03-21T04:53:03.679Z,27.99
2023-03-21T04:57:03.815Z,28.02
2023-03-21T05:01:03.998Z,27.97
2023-03-21T05:05:04.104Z,28.05
2023-03-21T05:09:04.232Z,28.00
2023-03-21T05:13:04.459Z,27.97
2023-03-21T05:17:04.597Z,27.93
2023-03-21T05:21:04.680Z,28.00
2023-03-21T05:25:04.851Z,27.96
2023-03-21T05:29:04.978Z,27.91
2023-03-21T05:33:05.172Z,28.00
2023-03-21T05:37:05.269Z,27.91
2023-03-21T05:41:05.439Z,27.94
2023-03-21T05:45:05.532Z,27.87
2023-03-21T05:49:05.692Z,27.94
2023-03-21T05:53:05.839Z,27.88
2023-03-21T05:57:06.043Z,27.78
2023-03-21T06:01:06.118Z,27.88
2023-03-21T06:05:06.280Z,28.24
2023-03-21T06:09:06.297Z,30.78
2023-03-21T06:13:06.237Z,28.78
2023-03-21T06:17:06.165Z,28.61
2023-03-21T06:21:06.136Z,28.43
2023-03-21T06:25:06.111Z,28.33
2023-03-21T06:29:06.074Z,28.29
2023-03-21T06:33:06.011Z,28.14
2023-03-21T06:37:06.024Z,28.08
2023-03-21T06:41:05.983Z,28.05
2023-03-21T06:45:05.913Z,28.39
2023-03-21T06:49:05.894Z,29.07
2023-03-21T06:53:05.842Z,29.22
2023-03-21T06:57:05.834Z,29.18
2023-03-21T07:01:05.810Z,31.64
2023-03-21T07:05:05.726Z,31.32
2023-03-21T07:09:05.699Z,31.72
2023-03-21T07:13:05.667Z,32.18
2023-03-21T07:17:05.671Z,33.26
2023-03-21T07:21:06.190Z,32.99
2023-03-21T07:25:05.772Z,33.23
2023-03-21T07:29:05.531Z,33.54
2023-03-21T07:33:05.571Z,33.84
2023-03-21T07:37:05.666Z,34.29
2023-03-21T07:41:05.662Z,34.66
2023-03-21T07:45:05.727Z,34.76
2023-03-21T07:49:05.850Z,35.52
2023-03-21T07:53:05.959Z,32.86
2023-03-21T07:57:06.015Z,33.57
2023-03-21T08:01:06.089Z,32.98
2023-03-21T08:05:06.182Z,32.82
2023-03-21T08:09:06.243Z,32.61
2023-03-21T08:13:06.286Z,32.45
2023-03-21T08:17:06.356Z,32.32
2023-03-21T08:21:08.270Z,32.15
2023-03-21T08:25:06.436Z,32.06
2023-03-21T08:29:06.268Z,31.88
2023-03-21T08:33:06.237Z,31.81
2023-03-21T08:37:06.230Z,31.73
2023-03-21T08:41:06.195Z,31.72
2023-03-21T08:45:06.117Z,32.08
2023-03-21T08:49:06.092Z,33.05
2023-03-21T08:53:06.064Z,29.65
2023-03-21T08:57:06.029Z,29.62
2023-03-21T09:01:06.006Z,30.59
2023-03-21T09:05:05.972Z,29.82
2023-03-21T09:09:05.917Z,32.01
2023-03-21T09:13:05.892Z,31.82
2023-03-21T09:17:05.850Z,31.88
2023-03-21T09:21:05.801Z,31.76
2023-03-21T09:25:05.808Z,31.90
2023-03-21T09:29:05.780Z,31.92
2023-03-21T09:33:05.712Z,31.92
2023-03-21T09:37:05.690Z,32.40
2023-03-21T09:41:05.641Z,32.42
2023-03-21T09:45:05.639Z,30.71
2023-03-21T09:49:05.568Z,31.22
2023-03-21T09:53:05.557Z,31.75
2023-03-21T09:57:05.674Z,30.95
2023-03-21T10:01:05.779Z,31.65
2023-03-21T10:05:05.908Z,32.48
2023-03-21T10:09:05.985Z,33.51
2023-03-21T10:13:06.066Z,33.71
2023-03-21T10:17:06.110Z,34.02
2023-03-21T10:21:06.346Z,34.31
2023-03-21T10:25:06.573Z,34.48
2023-03-21T10:29:06.853Z,34.83
2023-03-21T10:33:06.932Z,35.06
2023-03-21T10:37:07.027Z,35.16
2023-03-21T10:41:07.145Z,35.46
2023-03-21T10:45:07.226Z,35.86
2023-03-21T10:49:07.329Z,35.31
2023-03-21T10:53:07.410Z,30.53
2023-03-21T10:57:07.447Z,31.96
2023-03-21T11:01:07.560Z,32.89
2023-03-21T11:05:07.597Z,33.55
2023-03-21T11:09:07.797Z,34.03
2023-03-21T11:13:07.954Z,34.37
2023-03-21T11:17:08.211Z,34.88
2023-03-21T11:21:08.137Z,35.21
2023-03-21T11:25:08.197Z,35.55
2023-03-21T11:29:08.171Z,35.91
2023-03-21T11:33:08.202Z,36.30
2023-03-21T11:37:08.233Z,36.96
2023-03-21T11:41:08.347Z,37.34
2023-03-21T11:45:08.415Z,31.30
2023-03-21T11:49:08.524Z,30.10
2023-03-21T11:53:08.608Z,31.86
2023-03-21T11:57:08.667Z,33.97
2023-03-21T12:01:08.840Z,35.15
2023-03-21T12:05:08.969Z,35.69
2023-03-21T12:09:09.042Z,36.20
2023-03-21T12:13:09.056Z,37.03
2023-03-21T12:17:09.113Z,37.45
2023-03-21T12:21:09.207Z,37.44
2023-03-21T12:25:09.394Z,38.00
2023-03-21T12:29:09.362Z,38.11
2023-03-21T12:33:09.327Z,38.81
2023-03-21T12:37:09.324Z,28.72
2023-03-21T12:41:09.341Z,29.25
2023-03-21T12:45:15.224Z,29.97
2023-03-21T12:49:10.269Z,29.62
2023-03-21T12:53:09.116Z,29.95
2023-03-21T12:57:09.194Z,29.66
2023-03-21T13:01:09.334Z,28.99
2023-03-21T13:05:09.380Z,29.58
2023-03-21T13:09:09.590Z,29.57
2023-03-21T13:13:09.921Z,29.63
2023-03-21T13:17:09.893Z,30.65
2023-03-21T13:21:10.005Z,28.47
2023-03-21T13:25:10.097Z,29.86
2023-03-21T13:29:10.295Z,29.48
2023-03-21T13:33:10.282Z,28.93
2023-03-21T13:37:10.333Z,28.69
2023-03-21T13:41:10.399Z,28.58
2023-03-21T13:45:10.549Z,28.35
2023-03-21T13:49:10.520Z,28.38
2023-03-21T13:53:10.561Z,28.18
2023-03-21T13:57:10.628Z,28.20
2023-03-21T14:05:29.858Z,28.20
2023-03-21T14:09:29.660Z,27.96
2023-03-21T14:13:31.255Z,28.08
2023-03-21T14:17:29.820Z,28.20
2023-03-21T14:21:29.948Z,28.13
2023-03-21T14:25:36.900Z,28.19
2023-03-21T14:29:31.848Z,28.16
2023-03-21T14:33:29.853Z,28.16
2023-03-21T14:37:29.889Z,28.16
2023-03-21T14:41:29.792Z,28.11
2023-03-21T14:45:29.947Z,28.03
2023-03-21T14:49:30.064Z,28.00
2023-03-21T14:53:30.292Z,28.01
2023-03-21T14:57:30.295Z,27.87
2023-03-21T15:01:30.461Z,27.85
2023-03-21T15:05:30.610Z,27.79
2023-03-21T15:09:30.854Z,27.82
2023-03-21T15:13:30.885Z,27.84
2023-03-21T15:17:31.032Z,27.96
2023-03-21T15:21:31.204Z,28.12
2023-03-21T15:25:31.435Z,28.08
2023-03-21T15:29:31.498Z,28.22
2023-03-21T15:33:31.623Z,28.31
2023-03-21T15:37:31.798Z,28.39
2023-03-21T15:41:32.059Z,28.42
2023-03-21T15:45:32.157Z,28.42
2023-03-21T15:49:32.273Z,28.47
2023-03-21T15:53:32.437Z,28.44
2023-03-21T15:57:32.721Z,28.30
2023-03-21T16:01:32.735Z,28.18
2023-03-21T16:05:32.907Z,28.15
2023-03-21T16:09:33.063Z,28.05
2023-03-21T16:13:33.326Z,28.09
2023-03-21T16:17:33.464Z,28.08
2023-03-21T16:21:33.572Z,28.05
2023-03-21T16:25:33.712Z,28.06
2023-03-21T16:29:33.895Z,27.97
2023-03-21T16:33:34.028Z,28.03
2023-03-21T16:37:34.224Z,28.15
2023-03-21T16:41:34.357Z,28.25
2023-03-21T16:45:34.599Z,28.34
2023-03-21T16:49:34.686Z,28.46
2023-03-21T16:53:34.808Z,28.59
2023-03-21T16:57:34.974Z,28.71
2023-03-21T17:01:35.168Z,28.85
2023-03-21T17:05:35.280Z,28.97
2023-03-21T17:09:35.433Z,29.06
2023-03-21T17:13:35.576Z,29.09
2023-03-21T17:17:35.755Z,29.18
2023-03-21T17:21:35.893Z,29.29
2023-03-21T17:25:36.062Z,29.37
2023-03-21T17:29:36.247Z,29.34
2023-03-21T17:33:36.424Z,29.41
2023-03-21T17:37:36.567Z,29.26
2023-03-21T17:41:36.762Z,29.53
2023-03-21T17:45:36.986Z,29.66
2023-03-21T17:49:37.150Z,29.86
2023-03-21T17:53:37.359Z,29.95
2023-03-21T17:57:37.600Z,30.14
2023-03-21T18:01:37.840Z,30.32
2023-03-21T18:05:37.983Z,30.48
2023-03-21T18:09:38.175Z,30.61
2023-03-21T18:13:38.481Z,30.76
2023-03-21T18:17:38.575Z,30.88
2023-03-21T18:21:38.768Z,30.98
2023-03-21T18:25:39.015Z,31.01
2023-03-21T18:30:25.823Z,31.10
2023-03-21T18:33:40.166Z,31.11
2023-03-21T18:37:39.098Z,31.02
2023-03-21T18:41:39.262Z,30.92
2023-03-21T18:45:39.443Z,30.89
2023-03-21T18:53:40.396Z,30.83
2023-03-21T18:57:39.524Z,30.91
2023-03-21T19:01:39.698Z,30.95
2023-03-21T19:05:39.758Z,30.94
2023-03-21T19:10:01.481Z,30.96
2023-03-21T19:13:40.700Z,30.98
2023-03-21T19:21:40.624Z,31.05
2023-03-21T19:25:39.588Z,31.10
2023-03-21T19:29:39.649Z,31.09
2023-03-21T19:33:39.774Z,30.97
2023-03-21T19:37:39.907Z,30.96
2023-03-21T19:41:40.686Z,31.05
2023-03-21T19:45:40.314Z,31.10
2023-03-21T19:50:15.819Z,31.15
2023-03-21T19:53:41.353Z,31.16
2023-03-21T19:57:40.328Z,31.18
2023-03-21T20:01:40.338Z,31.23
2023-03-21T20:05:40.233Z,31.16
2023-03-21T20:09:52.286Z,31.12
2023-03-21T20:13:41.194Z,31.18
2023-03-21T20:17:40.192Z,31.17
2023-03-21T20:21:49.135Z,31.18
2023-03-21T20:25:41.106Z,31.17
2023-03-21T20:30:10.424Z,31.20
2023-03-21T20:33:41.021Z,31.21
2023-03-21T20:37:39.964Z,31.19
2023-03-21T20:41:39.929Z,31.21
2023-03-21T20:45:39.901Z,31.25
2023-03-21T20:49:40.334Z,31.26
2023-03-21T20:53:39.835Z,31.31
2023-03-21T20:57:39.800Z,31.35
2023-03-21T21:01:39.842Z,31.38
2023-03-21T21:05:39.909Z,31.35
2023-03-21T21:09:39.951Z,31.40
2023-03-21T21:13:39.994Z,31.25
2023-03-21T21:18:04.763Z,30.97
2023-03-21T21:21:41.135Z,30.47
2023-03-21T21:25:40.109Z,30.16
2023-03-21T21:29:40.104Z,29.93
2023-03-21T21:33:40.060Z,29.75
2023-03-21T21:37:40.067Z,29.71
2023-03-21T21:41:40.092Z,29.55
2023-03-21T21:45:40.102Z,29.49
2023-03-21T21:49:40.163Z,29.48
2023-03-21T21:53:40.216Z,29.39
2023-03-21T21:57:40.236Z,29.34
2023-03-21T22:01:40.260Z,29.33
2023-03-21T22:05:40.277Z,29.30
2023-03-21T22:09:40.349Z,29.22
2023-03-21T22:13:40.382Z,29.31
2023-03-21T22:17:40.438Z,29.21
2023-03-21T22:21:40.505Z,29.19
2023-03-21T22:25:40.558Z,29.21
2023-03-21T22:29:40.664Z,29.22
2023-03-21T22:33:40.716Z,29.16
2023-03-21T22:37:40.868Z,29.17
2023-03-21T22:41:40.998Z,29.15
2023-03-21T22:45:41.198Z,29.18
2023-03-21T22:49:41.347Z,29.14
2023-03-21T22:53:41.530Z,29.11
2023-03-21T22:57:41.676Z,29.08
2023-03-21T23:01:41.855Z,29.08
2023-03-21T23:05:41.982Z,29.07
2023-03-21T23:09:42.206Z,29.07
2023-03-21T23:13:42.385Z,29.02
2023-03-21T23:17:42.528Z,29.07
2023-03-21T23:21:42.744Z,29.06
2023-03-21T23:25:42.981Z,29.03
2023-03-21T23:29:43.192Z,29.07
2023-03-21T23:33:43.389Z,29.05
2023-03-21T23:37:43.588Z,29.04
2023-03-21T23:41:43.822Z,29.03
2023-03-21T23:45:44.027Z,28.97
2023-03-21T23:49:44.250Z,29.00
2023-03-21T23:53:44.492Z,28.97
2023-03-21T23:57:44.673Z,29.00
